Time,TemperatureF,DewpointF,PressureIn,WindDirection,WindDirectionDegrees,WindSpeedMPH,WindSpeedGustMPH,Humidity,HourlyPrecipIn,Conditions,Clouds,dailyrainin,SoftwareType,DateUTC
2015-03-30 00:11:00,59.6,56.0,29.95,NNW,344,0.0,-999.0,87,-99.99,,,0.00,weatherlink.com 1.10,2015-03-30 07:11:00,
2015-03-30 00:26:00,59.1,56.0,29.94,NNW,344,0.0,-999.0,88,-99.99,,,0.00,weatherlink.com 1.10,2015-03-30 07:26:00,
2015-03-30 00:41:00,58.7,55.0,29.94,NNW,344,0.0,-999.0,88,-99.99,,,0.00,weatherlink.com 1.10,2015-03-30 07:41:00,
2015-03-30 00:56:00,58.3,55.0,29.94,NNW,344,0.0,-999.0,88,-99.99,,,0.00,weatherlink.com 1.10,2015-03-30 07:56:00,
2015-03-30 01:11:00,57.9,54.0,29.94,NNW,344,0.0,-999.0,88,-99.99,,,0.00,weatherlink.com 1.10,2015-03-30 08:11:00,
2015-03-30 01:26:00,57.5,54.0,29.94,NNW,344,0.0,-999.0,89,-99.99,,,0.00,weatherlink.com 1.10,2015-03-30 08:26:00,
2015-03-30 01:41:00,57.0,54.0,29.94,NNW,344,0.0,-999.0,88,-99.99,,,0.00,weatherlink.com 1.10,2015-03-30 08:41:00,
2015-03-30 01:56:00,56.7,54.0,29.94,NNW,344,0.0,-999.0,89,-99.99,,,0.00,weatherlink.com 1.10,2015-03-30 08:56:00,
2015-03-30 02:11:00,56.7,54.0,29.93,NNW,344,0.0,-999.0,89,-99.99,,,0.00,weatherlink.com 1.10,2015-03-30 09:11:00,
2015-03-30 02:26:00,56.7,54.0,29.93,NNW,344,0.0,-999.0,89,-99.99,,,0.00,weatherlink.com 1.10,2015-03-30 09:26:00,
2015-03-30 02:41:00,56.2,53.0,29.92,NNW,344,0.0,-999.0,89,-99.99,,,0.00,weatherlink.com 1.10,2015-03-30 09:41:00,
2015-03-30 02:56:00,56.1,53.0,29.92,NNW,344,0.0,-999.0,90,-99.99,,,0.00,weatherlink.com 1.10,2015-03-30 09:56:00,
2015-03-30 03:11:00,55.9,53.0,29.91,NNW,344,0.0,-999.0,90,-99.99,,,0.00,weatherlink.com 1.10,2015-03-30 10:11:00,
2015-03-30 03:26:00,56.4,54.0,29.91,NNW,344,0.0,-999.0,90,-99.99,,,0.00,weatherlink.com 1.10,2015-03-30 10:26:00,
2015-03-30 03:41:00,56.8,54.0,29.91,NNW,344,0.0,-999.0,90,-99.99,,,0.00,weatherlink.com 1.10,2015-03-30 10:41:00,
2015-03-30 03:56:00,58.3,56.0,29.92,NNW,344,0.0,-999.0,91,-99.99,,,0.00,weatherlink.com 1.10,2015-03-30 10:56:00,
2015-03-30 04:11:00,59.6,57.0,29.91,NNW,344,0.0,-999.0,91,-99.99,,,0.00,weatherlink.com 1.10,2015-03-30 11:11:00,
2015-03-30 04:26:00,59.8,57.0,29.91,NNW,344,0.0,-999.0,91,-99.99,,,0.00,weatherlink.com 1.10,2015-03-30 11:26:00,
2015-03-30 04:41:00,59.9,57.0,29.91,WNW,294,0.0,-999.0,91,-99.99,,,0.00,weatherlink.com 1.10,2015-03-30 11:41:00,
2015-03-30 04:56:00,59.9,57.0,29.91,WNW,294,0.0,-999.0,91,-99.99,,,0.00,weatherlink.com 1.10,2015-03-30 11:56:00,
2015-03-30 05:11:00,59.9,57.0,29.91,WNW,294,0.0,-999.0,91,-99.99,,,0.00,weatherlink.com 1.10,2015-03-30 12:11:00,
2015-03-30 05:26:00,59.6,57.0,29.92,NW,326,0.0,-999.0,91,-99.99,,,0.00,weatherlink.com 1.10,2015-03-30 12:26:00,
2015-03-30 05:41:00,59.4,57.0,29.92,NW,326,0.0,-999.0,92,-99.99,,,0.00,weatherlink.com 1.10,2015-03-30 12:41:00,
2015-03-30 05:56:00,59.5,57.0,29.92,NW,326,1.0,-999.0,92,-99.99,,,0.00,weatherlink.com 1.10,2015-03-30 12:56:00,
2015-03-30 06:11:00,59.6,57.0,29.92,NW,326,0.0,-999.0,92,-99.99,,,0.00,weatherlink.com 1.10,2015-03-30 13:11:00,
2015-03-30 06:26:00,59.3,57.0,29.93,NW,326,0.0,-999.0,92,-99.99,,,0.00,weatherlink.com 1.10,2015-03-30 13:26:00,
2015-03-30 06:41:00,59.2,57.0,29.93,NW,326,0.0,-999.0,92,-99.99,,,0.00,weatherlink.com 1.10,2015-03-30 13:41:00,
2015-03-30 06:56:00,59.1,57.0,29.93,NW,326,0.0,-999.0,92,-99.99,,,0.00,weatherlink.com 1.10,2015-03-30 13:56:00,
2015-03-30 07:11:00,59.1,57.0,29.94,NW,326,2.0,-999.0,92,-99.99,,,0.00,weatherlink.com 1.10,2015-03-30 14:11:00,
2015-03-30 07:26:00,59.2,57.0,29.94,NW,326,0.0,-999.0,92,-99.99,,,0.00,weatherlink.com 1.10,2015-03-30 14:26:00,
2015-03-30 07:41:00,59.2,57.0,29.95,NNW,327,0.0,-999.0,92,-99.99,,,0.00,weatherlink.com 1.10,2015-03-30 14:41:00,
2015-03-30 07:56:00,59.3,57.0,29.95,NNW,327,0.0,-999.0,92,-99.99,,,0.00,weatherlink.com 1.10,2015-03-30 14:56:00,
2015-03-30 08:11:00,59.5,57.0,29.95,NNW,327,0.0,-999.0,92,-99.99,,,0.00,weatherlink.com 1.10,2015-03-30 15:11:00,
2015-03-30 08:26:00,59.8,58.0,29.95,NNW,327,0.0,-999.0,92,-99.99,,,0.00,weatherlink.com 1.10,2015-03-30 15:26:00,
2015-03-30 08:41:00,60.0,58.0,29.95,NNW,327,1.0,-999.0,92,-99.99,,,0.00,weatherlink.com 1.10,2015-03-30 15:41:00,
2015-03-30 08:56:00,60.2,58.0,29.96,NNW,327,0.0,-999.0,92,-99.99,,,0.00,weatherlink.com 1.10,2015-03-30 15:56:00,
2015-03-30 09:11:00,60.5,58.0,29.96,NNW,327,1.0,-999.0,92,-99.99,,,0.00,weatherlink.com 1.10,2015-03-30 16:11:00,
2015-03-30 09:26:00,61.0,58.0,29.96,NNW,327,0.0,-999.0,91,-99.99,,,0.00,weatherlink.com 1.10,2015-03-30 16:26:00,
2015-03-30 09:41:00,61.4,59.0,29.96,NNW,327,0.0,-999.0,91,-99.99,,,0.00,weatherlink.com 1.10,2015-03-30 16:41:00,
2015-03-30 09:56:00,61.7,59.0,29.97,NNW,327,0.0,-999.0,90,-99.99,,,0.00,weatherlink.com 1.10,2015-03-30 16:56:00,
2015-03-30 10:11:00,64.8,61.0,29.97,ENE,61,1.0,-999.0,86,-99.99,,,0.00,weatherlink.com 1.10,2015-03-30 17:11:00,
2015-03-30 10:26:00,66.3,60.0,29.97,NNE,32,2.0,-999.0,80,-99.99,,,0.00,weatherlink.com 1.10,2015-03-30 17:26:00,
2015-03-30 10:41:00,68.2,60.0,29.96,NE,53,0.0,-999.0,76,-99.99,,,0.00,weatherlink.com 1.10,2015-03-30 17:41:00,
2015-03-30 10:56:00,69.1,61.0,29.96,NNE,31,2.0,-999.0,75,-99.99,,,0.00,weatherlink.com 1.10,2015-03-30 17:56:00,
2015-03-30 11:11:00,70.2,60.0,29.96,SE,130,0.0,-999.0,70,-99.99,,,0.00,weatherlink.com 1.10,2015-03-30 18:11:00,
2015-03-30 11:27:00,71.6,61.0,29.96,SW,216,0.0,-999.0,69,-99.99,,,0.00,weatherlink.com 1.10,2015-03-30 18:27:00,
2015-03-30 11:41:00,72.2,60.0,29.95,NNW,342,0.0,-999.0,65,-99.99,,,0.00,weatherlink.com 1.10,2015-03-30 18:41:00,
2015-03-30 11:57:00,74.0,61.0,29.95,North,9,2.0,-999.0,63,-99.99,,,0.00,weatherlink.com 1.10,2015-03-30 18:57:00,
2015-03-30 12:12:00,74.6,61.0,29.94,WNW,282,0.0,-999.0,63,-99.99,,,0.00,weatherlink.com 1.10,2015-03-30 19:12:00,
2015-03-30 12:27:00,75.3,61.0,29.94,WSW,238,4.0,-999.0,62,-99.99,,,0.00,weatherlink.com 1.10,2015-03-30 19:27:00,
2015-03-30 12:42:00,75.8,62.0,29.94,WSW,240,3.0,-999.0,62,-99.99,,,0.00,weatherlink.com 1.10,2015-03-30 19:42:00,
2015-03-30 12:57:00,76.4,62.0,29.94,SW,217,4.0,-999.0,62,-99.99,,,0.00,weatherlink.com 1.10,2015-03-30 19:57:00,
2015-03-30 13:12:00,75.6,62.0,29.94,SW,216,3.0,-999.0,63,-99.99,,,0.00,weatherlink.com 1.10,2015-03-30 20:12:00,
2015-03-30 13:27:00,75.5,62.0,29.93,SSW,205,8.0,-999.0,63,-99.99,,,0.00,weatherlink.com 1.10,2015-03-30 20:27:00,
2015-03-30 13:42:00,75.3,62.0,29.93,SW,217,7.0,-999.0,63,-99.99,,,0.00,weatherlink.com 1.10,2015-03-30 20:42:00,
2015-03-30 13:57:00,74.9,61.0,29.92,SW,223,5.0,-999.0,63,-99.99,,,0.00,weatherlink.com 1.10,2015-03-30 20:57:00,
2015-03-30 14:12:00,75.5,61.0,29.91,SSW,209,10.0,-999.0,62,-99.99,,,0.00,weatherlink.com 1.10,2015-03-30 21:12:00,
2015-03-30 14:27:00,75.7,62.0,29.91,SW,229,8.0,-999.0,62,-99.99,,,0.00,weatherlink.com 1.10,2015-03-30 21:27:00,
2015-03-30 14:42:00,75.5,61.0,29.90,SW,225,5.0,-999.0,62,-99.99,,,0.00,weatherlink.com 1.10,2015-03-30 21:42:00,
2015-03-30 14:57:00,76.6,62.0,29.89,SW,219,4.0,-999.0,60,-99.99,,,0.00,weatherlink.com 1.10,2015-03-30 21:57:00,
2015-03-30 15:12:00,77.4,61.0,29.89,SSW,213,3.0,-999.0,58,-99.99,,,0.00,weatherlink.com 1.10,2015-03-30 22:12:00,
2015-03-30 15:27:00,78.3,62.0,29.88,WNW,288,2.0,-999.0,57,-99.99,,,0.00,weatherlink.com 1.10,2015-03-30 22:27:00,
2015-03-30 15:42:00,79.8,60.0,29.88,NW,319,3.0,-999.0,51,-99.99,,,0.00,weatherlink.com 1.10,2015-03-30 22:42:00,
2015-03-30 15:57:00,78.4,59.0,29.88,NNW,331,2.0,-999.0,51,-99.99,,,0.00,weatherlink.com 1.10,2015-03-30 22:57:00,
2015-03-30 16:12:00,78.5,58.0,29.88,NNW,345,3.0,-999.0,50,-99.99,,,0.00,weatherlink.com 1.10,2015-03-30 23:12:00,